Terminal Aerodrome Forecast
Issued by NWS

Home | Current Version | Previous Version | Graphics & Text | Print | Product List | Glossary On
Versions: 1 2 3 4 5 6 7 8 9 10 11 12 13
000
FTUS43 KGRB 170500
TAFAUW
TAF
KAUW 170520Z 1706/1806 VRB03KT P6SM SCT070 BKN090
     FM170900 VRB03KT P6SM BKN070
     FM171200 VRB03KT P6SM SCT090
     FM171700 27007KT P6SM SCT100
     FM172300 VRB03KT P6SM SKC=

USA.gov is the U.S. government's official web portal to all federal, state and local government web resources and services.